createdAt,value
2023-02-04T00:00:59.213Z,100751.97
2023-02-04T00:02:03.615Z,100749.03
2023-02-04T00:03:06.032Z,100757.41
2023-02-04T00:04:08.361Z,100758.06
2023-02-04T00:05:12.391Z,100768.38
2023-02-04T00:06:15.765Z,100769.84
2023-02-04T00:07:18.694Z,100783.97
2023-02-04T00:08:21.266Z,100782.50
2023-02-04T00:09:23.664Z,100791.97
2023-02-04T00:10:25.914Z,100796.81
2023-02-04T00:11:29.105Z,100794.28
2023-02-04T00:12:31.248Z,100803.97
2023-02-04T00:13:33.404Z,100798.88
2023-02-04T00:14:36.729Z,100799.53
2023-02-04T00:15:39.105Z,100801.63
2023-02-04T00:16:41.311Z,100806.25
2023-02-04T00:17:43.560Z,100811.50
2023-02-04T00:18:45.728Z,100812.56
2023-02-04T00:19:47.913Z,100811.28
2023-02-04T00:20:50.195Z,100810.47
2023-02-04T00:21:52.371Z,100828.13
2023-02-04T00:22:55.125Z,100831.03
2023-02-04T00:23:57.362Z,100839.03
2023-02-04T00:24:59.655Z,100841.34
2023-02-04T00:26:01.954Z,100848.69
2023-02-04T00:27:05.592Z,100836.28
2023-02-04T00:28:08.255Z,100832.06
2023-02-04T00:29:10.565Z,100829.53
2023-02-04T00:30:14.169Z,100852.88
2023-02-04T00:31:16.441Z,100861.09
2023-02-04T00:32:18.836Z,100860.84
2023-02-04T00:33:21.156Z,100882.72
2023-02-04T00:34:23.444Z,100883.31
2023-02-04T00:35:25.775Z,100882.69
2023-02-04T00:36:28.272Z,100890.25
2023-02-04T00:37:31.406Z,100890.66
2023-02-04T00:38:33.618Z,100900.13
2023-02-04T00:39:36.258Z,100889.59
2023-02-04T00:40:38.480Z,100889.34
2023-02-04T00:41:41.709Z,100901.72
2023-02-04T00:42:43.866Z,100901.72
2023-02-04T00:43:46.119Z,100907.81
2023-02-04T00:44:48.306Z,100916.00
2023-02-04T00:45:50.545Z,100922.91
2023-02-04T00:46:52.773Z,100925.84
2023-02-04T00:47:55.072Z,100933.19
2023-02-04T00:48:57.279Z,100939.91
2023-02-04T00:49:59.491Z,100932.09
2023-02-04T00:51:02.279Z,100941.34
2023-02-04T00:52:04.912Z,100943.41
2023-02-04T00:53:07.551Z,100945.53
2023-02-04T00:54:10.225Z,100942.13
2023-02-04T00:55:12.701Z,100949.50
2023-02-04T00:56:15.009Z,100954.72
2023-02-04T00:57:18.917Z,100959.34
2023-02-04T00:58:21.460Z,100964.16
2023-02-04T00:59:23.864Z,100963.47
2023-02-04T01:00:26.063Z,100970.00
2023-02-04T01:01:28.433Z,100968.31
2023-02-04T01:02:30.764Z,100963.06
2023-02-04T01:03:33.297Z,100976.25
2023-02-04T01:04:35.748Z,100984.44
2023-02-04T01:05:38.101Z,100980.84
2023-02-04T01:06:40.622Z,100982.75
2023-02-04T01:07:42.865Z,100997.66
2023-02-04T01:08:45.264Z,100992.19
2023-02-04T01:09:47.468Z,101005.00
2023-02-04T01:10:49.958Z,100993.41
2023-02-04T01:11:53.165Z,100995.53
2023-02-04T01:12:57.057Z,101007.47
2023-02-04T01:13:59.673Z,101004.75
2023-02-04T01:15:01.841Z,101002.38
2023-02-04T01:16:04.111Z,101002.38
2023-02-04T01:17:06.497Z,101004.28
2023-02-04T01:18:08.785Z,101012.47
2023-02-04T01:19:11.243Z,101016.25
2023-02-04T01:20:13.480Z,101010.16
2023-02-04T01:21:15.771Z,101016.66
2023-02-04T01:22:18.361Z,101020.41
2023-02-04T01:23:20.618Z,101027.75
2023-02-04T01:24:22.775Z,101029.63
2023-02-04T01:25:43.224Z,101032.56
2023-02-04T01:26:45.399Z,101031.91
2023-02-04T01:27:47.613Z,101037.00
2023-02-04T01:28:50.493Z,101045.56
2023-02-04T01:29:52.720Z,101037.34
2023-02-04T01:30:55.538Z,101056.31
2023-02-04T01:31:57.924Z,101049.97
2023-02-04T01:33:00.217Z,101046.22
2023-02-04T01:34:02.450Z,101060.91
2023-02-04T01:35:04.993Z,101075.41
2023-02-04T01:36:08.677Z,101065.53
2023-02-04T01:37:11.234Z,101064.66
2023-02-04T01:38:13.539Z,101086.50
2023-02-04T01:39:16.191Z,101083.34
2023-02-04T01:40:18.732Z,101084.16
2023-02-04T01:41:22.598Z,101090.28
2023-02-04T01:42:25.269Z,101094.06
2023-02-04T01:43:27.969Z,101093.38
2023-02-04T01:44:35.230Z,101099.25
2023-02-04T01:45:38.530Z,101099.25
2023-02-04T01:46:41.098Z,101110.16
2023-02-04T01:47:45.943Z,101108.66
2023-02-04T01:48:48.478Z,101110.56
2023-02-04T01:49:54.608Z,101113.47
2023-02-04T01:51:04.944Z,101111.59
2023-02-04T01:52:07.390Z,101126.75
2023-02-04T01:53:09.642Z,101131.53
2023-02-04T01:54:19.958Z,101128.59
2023-02-04T01:55:26.368Z,101143.31
2023-02-04T01:56:31.733Z,101145.19
2023-02-04T01:57:35.712Z,101154.25
2023-02-04T01:58:38.149Z,101171.66
2023-02-04T01:59:43.922Z,101160.06
2023-02-04T02:00:47.590Z,101163.81
2023-02-04T02:01:53.630Z,101173.91
2023-02-04T02:02:56.647Z,101176.81
2023-02-04T02:03:59.942Z,101174.09
2023-02-04T02:05:04.501Z,101178.88
2023-02-04T02:06:09.795Z,101177.84
2023-02-04T02:07:13.431Z,101176.16
2023-02-04T02:08:16.578Z,101187.06
2023-02-04T02:09:18.980Z,101190.66
2023-02-04T02:10:21.609Z,101186.25
2023-02-04T02:11:25.001Z,101189.81
2023-02-04T02:12:28.049Z,101192.53
2023-02-04T02:13:30.347Z,101191.69
2023-02-04T02:14:32.633Z,101197.34
2023-02-04T02:15:34.872Z,101199.88
2023-02-04T02:16:37.159Z,101203.84
2023-02-04T02:17:40.687Z,101207.22
2023-02-04T02:18:43.574Z,101211.00
2023-02-04T02:19:45.789Z,101209.28
2023-02-04T02:20:48.087Z,101215.59
2023-02-04T02:21:59.148Z,101222.94
2023-02-04T02:23:25.392Z,101228.22
2023-02-04T02:24:32.949Z,101226.31
2023-02-04T02:25:35.251Z,101229.25
2023-02-04T02:26:38.814Z,101242.88
2023-02-04T02:27:41.874Z,101234.06
2023-02-04T02:28:45.846Z,101248.53
2023-02-04T02:29:48.339Z,101246.84
2023-02-04T02:30:51.437Z,101257.09
2023-02-04T02:31:58.098Z,101254.38
2023-02-04T02:33:02.179Z,101272.44
2023-02-04T02:34:04.431Z,101268.19
2023-02-04T02:35:07.382Z,101274.69
2023-02-04T02:36:10.641Z,101281.00
2023-02-04T02:37:13.391Z,101287.47
2023-02-04T02:38:17.330Z,101284.75
2023-02-04T02:39:20.067Z,101286.63
2023-02-04T02:40:22.516Z,101292.47
2023-02-04T02:41:24.749Z,101298.94
2023-02-04T02:42:27.173Z,101289.88
2023-02-04T02:43:30.352Z,101294.50
2023-02-04T02:44:34.109Z,101302.50
2023-02-04T02:45:36.386Z,101301.88
2023-02-04T02:46:38.716Z,101308.16
2023-02-04T02:47:40.946Z,101295.34
2023-02-04T02:48:43.213Z,101309.38
2023-02-04T02:49:47.960Z,101314.00
2023-02-04T02:50:50.962Z,101301.56
2023-02-04T02:51:53.625Z,101307.03
2023-02-04T02:52:58.317Z,101312.66
2023-02-04T02:54:00.884Z,101311.13
2023-02-04T02:55:03.434Z,101314.06
2023-02-04T02:56:06.268Z,101320.38
2023-02-04T02:57:19.895Z,101319.69
2023-02-04T02:58:30.034Z,101319.69
2023-02-04T02:59:32.356Z,101327.88
2023-02-04T03:00:34.669Z,101319.88
2023-02-04T03:01:37.098Z,101329.28
2023-02-04T03:02:39.789Z,101332.84
2023-02-04T03:03:50.044Z,101342.06
2023-02-04T03:04:58.457Z,101349.78
2023-02-04T03:06:10.070Z,101350.63
2023-02-04T03:07:14.253Z,101357.09
2023-02-04T03:08:17.535Z,101357.28
2023-02-04T03:09:20.275Z,101361.91
2023-02-04T03:10:23.778Z,101364.81
2023-02-04T03:11:29.919Z,101369.41
2023-02-04T03:12:32.236Z,101366.03
2023-02-04T03:13:34.582Z,101388.69
2023-02-04T03:14:38.487Z,101383.44
2023-02-04T03:15:43.152Z,101386.34
2023-02-04T03:16:47.507Z,101381.91
2023-02-04T03:17:51.558Z,101391.78
2023-02-04T03:18:54.975Z,101401.00
2023-02-04T03:19:57.322Z,101391.94
2023-02-04T03:21:01.711Z,101401.00
2023-02-04T03:22:05.727Z,101398.28
2023-02-04T03:23:08.178Z,101398.47
2023-02-04T03:24:11.566Z,101399.28
2023-02-04T03:25:13.734Z,101405.78
2023-02-04T03:26:15.909Z,101405.13
2023-02-04T03:27:20.933Z,101414.31
2023-02-04T03:28:23.116Z,101418.91
2023-02-04T03:29:25.371Z,101424.38
2023-02-04T03:30:27.694Z,101427.97
2023-02-04T03:31:30.050Z,101431.53
2023-02-04T03:32:32.380Z,101432.75
2023-02-04T03:33:36.150Z,101443.66
2023-02-04T03:34:38.363Z,101437.34
2023-02-04T03:35:40.617Z,101443.84
2023-02-04T03:36:42.896Z,101458.31
2023-02-04T03:37:45.148Z,101463.94
2023-02-04T03:38:47.385Z,101463.09
2023-02-04T03:39:49.613Z,101466.84
2023-02-04T03:40:51.815Z,101470.78
2023-02-04T03:41:54.034Z,101472.69
2023-02-04T03:42:56.276Z,101476.59
2023-02-04T03:43:58.469Z,101471.34
2023-02-04T03:45:00.676Z,101473.38
2023-02-04T03:46:02.914Z,101487.84
2023-02-04T03:47:05.569Z,101499.44
2023-02-04T03:48:09.614Z,101502.53
2023-02-04T03:49:14.081Z,101498.94
2023-02-04T03:50:16.403Z,101498.28
2023-02-04T03:51:18.690Z,101508.50
2023-02-04T03:52:21.000Z,101515.66
2023-02-04T03:53:23.271Z,101516.69
2023-02-04T03:54:25.411Z,101515.84
2023-02-04T03:55:27.620Z,101522.31
2023-02-04T03:56:29.940Z,101533.41
2023-02-04T03:57:32.120Z,101527.25
2023-02-04T03:58:34.339Z,101532.06
2023-02-04T03:59:36.559Z,101538.53
2023-02-04T04:00:38.971Z,101545.84
2023-02-04T04:01:41.282Z,101546.03
2023-02-04T04:02:43.560Z,101550.63
2023-02-04T04:03:45.860Z,101559.16
2023-02-04T04:04:48.045Z,101562.91
2023-02-04T04:05:51.456Z,101561.22
2023-02-04T04:06:54.555Z,101570.41
2023-02-04T04:07:56.941Z,101575.16
2023-02-04T04:08:59.139Z,101577.06
2023-02-04T04:10:01.465Z,101590.00
2023-02-04T04:11:04.241Z,101589.16
2023-02-04T04:12:06.600Z,101596.66
2023-02-04T04:13:08.798Z,101595.81
2023-02-04T04:14:13.266Z,101604.16
2023-02-04T04:15:15.644Z,101597.00
2023-02-04T04:16:17.900Z,101604.34
2023-02-04T04:17:20.140Z,101600.91
2023-02-04T04:18:22.571Z,101608.25
2023-02-04T04:19:25.761Z,101609.44
2023-02-04T04:20:29.272Z,101613.19
2023-02-04T04:21:31.677Z,101614.22
2023-02-04T04:22:34.153Z,101621.53
2023-02-04T04:23:36.429Z,101613.38
2023-02-04T04:24:38.631Z,101612.69
2023-02-04T04:25:40.839Z,101614.56
2023-02-04T04:26:43.000Z,101620.00
2023-02-04T04:27:45.193Z,101621.03
2023-02-04T04:28:49.580Z,101622.03
2023-02-04T04:29:52.016Z,101627.66
2023-02-04T04:30:54.343Z,101631.41
2023-02-04T04:31:56.686Z,101632.28
2023-02-04T04:32:58.936Z,101626.13
2023-02-04T04:34:02.207Z,101632.44
2023-02-04T04:35:04.656Z,101628.03
2023-02-04T04:36:07.915Z,101635.16
2023-02-04T04:37:11.805Z,101637.72
2023-02-04T04:38:14.007Z,101642.50
2023-02-04T04:39:16.213Z,101638.75
2023-02-04T04:40:19.458Z,101644.38
2023-02-04T04:41:21.671Z,101649.66
2023-02-04T04:42:23.996Z,101646.06
2023-02-04T04:43:26.188Z,101648.78
2023-02-04T04:44:28.329Z,101655.75
2023-02-04T04:45:30.529Z,101661.56
2023-02-04T04:46:32.866Z,101663.94
2023-02-04T04:47:35.042Z,101662.25
2023-02-04T04:48:37.280Z,101669.56
2023-02-04T04:49:39.822Z,101670.44
2023-02-04T04:50:42.273Z,101669.56
2023-02-04T04:51:46.056Z,101676.88
2023-02-04T04:52:48.363Z,101676.03
2023-02-04T04:53:50.716Z,101679.78
2023-02-04T04:54:52.992Z,101684.19
2023-02-04T04:55:55.507Z,101688.81
2023-02-04T04:56:57.665Z,101700.72
2023-02-04T04:57:59.909Z,101712.50
2023-02-04T04:59:03.463Z,101718.94
2023-02-04T05:00:09.252Z,101714.69
2023-02-04T05:01:11.679Z,101724.72
2023-02-04T05:02:13.869Z,101727.44
2023-02-04T05:03:16.483Z,101730.34
2023-02-04T05:04:18.726Z,101725.91
2023-02-04T05:05:21.070Z,101730.69
2023-02-04T05:06:25.519Z,101738.03
2023-02-04T05:07:27.924Z,101745.31
2023-02-04T05:08:30.774Z,101739.03
2023-02-04T05:09:33.009Z,101739.88
2023-02-04T05:10:35.792Z,101745.50
2023-02-04T05:11:37.957Z,101748.91
2023-02-04T05:12:40.115Z,101754.38
2023-02-04T05:13:42.844Z,101758.94
2023-02-04T05:14:45.474Z,101755.38
2023-02-04T05:15:47.710Z,101749.06
2023-02-04T05:16:50.008Z,101762.00
2023-02-04T05:17:53.144Z,101764.75
2023-02-04T05:18:55.469Z,101764.75
2023-02-04T05:19:57.705Z,101757.75
2023-02-04T05:20:59.936Z,101765.75
2023-02-04T05:22:02.715Z,101767.63
2023-02-04T05:23:05.894Z,101771.53
2023-02-04T05:24:08.312Z,101767.78
2023-02-04T05:25:11.426Z,101773.22
2023-02-04T05:26:25.145Z,101778.00
2023-02-04T05:27:31.615Z,101779.72
2023-02-04T05:28:33.854Z,101784.47
2023-02-04T05:29:37.205Z,101782.91
2023-02-04T05:30:39.429Z,101785.81
2023-02-04T05:31:41.653Z,101795.84
2023-02-04T05:32:43.873Z,101805.06
2023-02-04T05:33:46.104Z,101795.34
2023-02-04T05:34:48.290Z,101800.78
2023-02-04T05:35:50.816Z,101800.78
2023-02-04T05:36:53.091Z,101809.97
2023-02-04T05:37:55.301Z,101806.53
2023-02-04T05:38:57.573Z,101813.88
2023-02-04T05:39:59.777Z,101815.91
2023-02-04T05:41:02.035Z,101817.25
2023-02-04T05:42:04.817Z,101820.84
2023-02-04T05:43:08.338Z,101812.13
2023-02-04T05:44:10.626Z,101821.16
2023-02-04T05:45:16.012Z,101816.72
2023-02-04T05:46:19.699Z,101821.31
2023-02-04T05:47:21.935Z,101825.22
2023-02-04T05:48:25.590Z,101828.78
2023-02-04T05:49:27.756Z,101836.28
2023-02-04T05:50:30.213Z,101833.72
2023-02-04T05:51:43.772Z,101836.44
2023-02-04T05:52:46.853Z,101834.91
2023-02-04T05:53:49.755Z,101835.03
2023-02-04T05:54:52.072Z,101837.25
2023-02-04T05:55:54.284Z,101847.09
2023-02-04T05:56:57.924Z,101848.97
2023-02-04T05:58:00.150Z,101853.06
2023-02-04T05:59:02.682Z,101851.34
2023-02-04T06:00:06.186Z,101854.22
2023-02-04T06:01:17.475Z,101859.50
2023-02-04T06:02:20.326Z,101863.41
2023-02-04T06:03:22.590Z,101868.00
2023-02-04T06:04:25.310Z,101871.72
2023-02-04T06:05:27.588Z,101868.31
2023-02-04T06:06:29.781Z,101870.88
2023-02-04T06:07:32.030Z,101869.84
2023-02-04T06:08:34.299Z,101876.34
2023-02-04T06:09:36.699Z,101872.06
2023-02-04T06:10:38.870Z,101875.78
2023-02-04T06:11:41.624Z,101874.06
2023-02-04T06:12:44.148Z,101884.25
2023-02-04T06:13:46.390Z,101888.88
2023-02-04T06:14:48.568Z,101897.19
2023-02-04T06:15:50.775Z,101891.59
2023-02-04T06:16:53.203Z,101898.19
2023-02-04T06:17:55.364Z,101900.06
2023-02-04T06:18:57.603Z,101896.47
2023-02-04T06:19:59.842Z,101903.81
2023-02-04T06:21:04.884Z,101901.25
2023-02-04T06:22:07.132Z,101907.69
2023-02-04T06:23:09.335Z,101909.56
2023-02-04T06:24:11.631Z,101908.88
2023-02-04T06:25:13.894Z,101915.31
2023-02-04T06:26:16.061Z,101914.47
2023-02-04T06:27:23.376Z,101917.34
2023-02-04T06:28:25.821Z,101918.53
2023-02-04T06:29:28.082Z,101918.66
2023-02-04T06:30:31.452Z,101919.53
2023-02-04T06:31:35.806Z,101924.28
2023-02-04T06:32:38.459Z,101928.88
2023-02-04T06:33:40.711Z,101935.31
2023-02-04T06:34:43.002Z,101939.03
2023-02-04T06:35:45.523Z,101947.38
2023-02-04T06:36:48.694Z,101943.81
2023-02-04T06:37:50.933Z,101950.94
2023-02-04T06:38:53.175Z,101944.81
2023-02-04T06:39:57.588Z,101950.41
2023-02-04T06:40:59.930Z,101954.97
2023-02-04T06:42:02.222Z,101956.84
2023-02-04T06:43:04.644Z,101963.13
2023-02-04T06:44:08.151Z,101957.19
2023-02-04T06:45:10.405Z,101959.91
2023-02-04T06:46:12.746Z,101976.50
2023-02-04T06:47:16.573Z,101971.22
2023-02-04T06:48:19.406Z,101974.97
2023-02-04T06:49:21.733Z,101978.69
2023-02-04T06:50:24.025Z,101981.56
2023-02-04T06:51:28.843Z,101980.00
2023-02-04T06:52:31.268Z,101981.16
2023-02-04T06:53:33.487Z,101988.50
2023-02-04T06:54:35.720Z,101982.19
2023-02-04T06:55:39.737Z,101989.34
2023-02-04T06:56:43.728Z,101990.34
2023-02-04T06:57:45.901Z,101988.66
2023-02-04T06:58:48.086Z,101988.31
2023-02-04T06:59:50.341Z,101997.22
2023-02-04T07:00:52.562Z,101992.44
2023-02-04T07:01:54.765Z,102001.31
2023-02-04T07:02:59.743Z,101995.72
2023-02-04T07:04:03.345Z,101999.69
2023-02-04T07:05:09.744Z,102002.22
2023-02-04T07:06:11.992Z,102010.09
2023-02-04T07:07:14.217Z,102011.66
2023-02-04T07:08:16.448Z,102007.44
2023-02-04T07:09:20.285Z,102004.44
2023-02-04T07:10:22.512Z,102007.56
2023-02-04T07:11:24.820Z,102006.22
2023-02-04T07:12:27.917Z,102004.72
2023-02-04T07:13:30.120Z,102007.00
2023-02-04T07:14:32.425Z,102011.78
2023-02-04T07:15:34.703Z,102005.88
2023-02-04T07:16:37.729Z,102007.09
2023-02-04T07:17:40.016Z,102008.38
2023-02-04T07:18:42.335Z,102011.31
2023-02-04T07:19:44.529Z,102012.53
2023-02-04T07:20:46.762Z,102012.91
2023-02-04T07:21:54.072Z,102007.66
2023-02-04T07:22:57.680Z,102011.31
2023-02-04T07:24:02.993Z,102014.41
2023-02-04T07:25:05.421Z,102015.31
2023-02-04T07:26:07.702Z,102017.38
2023-02-04T07:27:09.920Z,102016.56
2023-02-04T07:28:12.837Z,102008.44
2023-02-04T07:29:24.780Z,102006.59
2023-02-04T07:30:27.646Z,102010.91
2023-02-04T07:31:29.963Z,102009.22
2023-02-04T07:32:33.717Z,102007.22
2023-02-04T07:33:36.355Z,102014.22
2023-02-04T07:34:38.687Z,102015.97
2023-02-04T07:35:40.898Z,102013.09
2023-02-04T07:36:43.906Z,102015.50
2023-02-04T07:37:46.201Z,102017.09
2023-02-04T07:38:48.459Z,102017.78
2023-02-04T07:39:50.710Z,102023.75
2023-02-04T07:40:53.250Z,102025.47
2023-02-04T07:41:55.634Z,102038.78
2023-02-04T07:43:00.500Z,102033.84
2023-02-04T07:44:04.676Z,102038.94
2023-02-04T07:45:08.898Z,102042.19
2023-02-04T07:46:11.118Z,102040.94
2023-02-04T07:47:13.530Z,102047.94
2023-02-04T07:48:15.732Z,102048.41
2023-02-04T07:49:18.021Z,102048.03
2023-02-04T07:50:20.946Z,102058.59
2023-02-04T07:51:24.323Z,102061.13
2023-02-04T07:52:26.639Z,102058.84
2023-02-04T07:53:30.131Z,102060.34
2023-02-04T07:54:32.435Z,102064.56
2023-02-04T07:55:34.624Z,102057.16
2023-02-04T07:56:36.869Z,102053.34
2023-02-04T07:57:39.285Z,102057.03
2023-02-04T07:58:42.298Z,102056.50
2023-02-04T07:59:44.580Z,102064.34
2023-02-04T08:00:46.772Z,102062.81
2023-02-04T08:01:50.011Z,102062.81
2023-02-04T08:02:52.402Z,102063.00
2023-02-04T08:03:54.632Z,102065.53
2023-02-04T08:04:56.845Z,102082.16
2023-02-04T08:05:59.133Z,102074.09
2023-02-04T08:07:01.404Z,102076.19
2023-02-04T08:08:03.608Z,102069.38
2023-02-04T08:09:05.817Z,102081.53
2023-02-04T08:10:10.072Z,102087.34
2023-02-04T08:11:12.436Z,102086.84
2023-02-04T08:12:14.648Z,102084.50
2023-02-04T08:13:16.966Z,102085.88
2023-02-04T08:14:19.153Z,102090.22
2023-02-04T08:15:21.497Z,102091.56
2023-02-04T08:16:25.275Z,102094.00
2023-02-04T08:17:28.284Z,102092.50
2023-02-04T08:18:30.596Z,102102.06
2023-02-04T08:19:32.790Z,102097.16
2023-02-04T08:20:35.045Z,102105.88
2023-02-04T08:21:37.398Z,102108.78
2023-02-04T08:22:40.341Z,102105.56
2023-02-04T08:23:42.657Z,102114.97
2023-02-04T08:24:45.002Z,102110.03
2023-02-04T08:25:47.267Z,102116.91
2023-02-04T08:26:51.060Z,102106.47
2023-02-04T08:27:53.952Z,102109.72
2023-02-04T08:28:58.259Z,102119.13
2023-02-04T08:30:00.545Z,102118.47
2023-02-04T08:31:03.750Z,102123.94
2023-02-04T08:32:06.372Z,102131.13
2023-02-04T08:33:08.623Z,102128.88
2023-02-04T08:34:10.837Z,102133.31
2023-02-04T08:35:13.124Z,102137.75
2023-02-04T08:36:15.312Z,102137.59
2023-02-04T08:37:17.559Z,102134.66
2023-02-04T08:38:19.756Z,102132.44
2023-02-04T08:39:22.197Z,102145.44
2023-02-04T08:40:24.401Z,102144.88
2023-02-04T08:41:26.710Z,102139.09
2023-02-04T08:42:29.409Z,102153.09
2023-02-04T08:43:31.866Z,102148.28
2023-02-04T08:44:34.069Z,102150.69
2023-02-04T08:45:36.658Z,102155.78
2023-02-04T08:46:38.952Z,102151.84
2023-02-04T08:47:41.185Z,102160.56
2023-02-04T08:48:43.370Z,102156.44
2023-02-04T08:49:45.736Z,102158.16
2023-02-04T08:50:48.245Z,102161.41
2023-02-04T08:51:50.602Z,102164.13
2023-02-04T08:52:52.837Z,102166.69
2023-02-04T08:53:55.111Z,102162.94
2023-02-04T08:54:57.371Z,102165.66
2023-02-04T08:55:59.620Z,102170.28
2023-02-04T08:57:03.790Z,102172.16
2023-02-04T08:58:06.697Z,102168.41
2023-02-04T08:59:08.957Z,102172.16
2023-02-04T09:00:13.645Z,102168.75
2023-02-04T09:01:16.065Z,102170.97
2023-02-04T09:02:18.432Z,102171.16
2023-02-04T09:03:20.711Z,102169.44
2023-02-04T09:04:23.933Z,102171.69
2023-02-04T09:05:27.344Z,102172.91
2023-02-04T09:06:29.567Z,102179.41
2023-02-04T09:07:31.767Z,102171.56
2023-02-04T09:08:34.072Z,102183.34
2023-02-04T09:09:37.031Z,102177.53
2023-02-04T09:10:39.217Z,102179.78
2023-02-04T09:11:42.604Z,102182.50
2023-02-04T09:12:46.253Z,102182.88
2023-02-04T09:13:48.441Z,102188.53
2023-02-04T09:14:51.862Z,102178.59
2023-02-04T09:15:55.702Z,102187.19
2023-02-04T09:16:57.937Z,102181.00
2023-02-04T09:18:13.467Z,102183.94
2023-02-04T09:19:16.756Z,102194.19
2023-02-04T09:20:24.141Z,102185.63
2023-02-04T09:21:26.707Z,102195.03
2023-02-04T09:22:28.856Z,102194.38
2023-02-04T09:23:31.296Z,102189.06
2023-02-04T09:24:33.562Z,102203.94
2023-02-04T09:25:35.863Z,102196.78
2023-02-04T09:26:38.449Z,102180.50
2023-02-04T09:27:40.806Z,102189.78
2023-02-04T09:28:43.456Z,102193.53
2023-02-04T09:29:45.661Z,102187.03
2023-02-04T09:30:48.225Z,102196.25
2023-02-04T09:31:52.536Z,102201.75
2023-02-04T09:32:54.810Z,102203.63
2023-02-04T09:33:57.095Z,102202.41
2023-02-04T09:34:59.296Z,102199.66
2023-02-04T09:36:02.493Z,102208.94
2023-02-04T09:37:04.790Z,102210.59
2023-02-04T09:38:07.112Z,102215.06
2023-02-04T09:39:10.227Z,102215.94
2023-02-04T09:40:17.624Z,102216.06
2023-02-04T09:41:21.156Z,102211.47
2023-02-04T09:42:25.530Z,102215.06
2023-02-04T09:43:31.372Z,102218.50
2023-02-04T09:44:33.555Z,102220.53
2023-02-04T09:45:36.625Z,102224.97
2023-02-04T09:46:38.917Z,102222.94
2023-02-04T09:47:42.490Z,102228.56
2023-02-04T09:48:46.773Z,102233.00
2023-02-04T09:49:49.144Z,102230.63
2023-02-04T09:50:52.487Z,102229.75
2023-02-04T09:51:55.749Z,102239.69
2023-02-04T09:53:03.284Z,102231.47
2023-02-04T09:54:12.294Z,102236.94
2023-02-04T09:55:16.754Z,102241.41
2023-02-04T09:56:19.735Z,102240.56
2023-02-04T09:57:22.544Z,102241.41
2023-02-04T09:58:29.885Z,102242.41
2023-02-04T09:59:32.181Z,102241.56
2023-02-04T10:00:34.861Z,102257.81
2023-02-04T10:01:37.195Z,102244.13
2023-02-04T10:02:39.408Z,102250.31
2023-02-04T10:03:46.747Z,102253.34
2023-02-04T10:04:51.221Z,102253.03
2023-02-04T10:05:54.016Z,102253.03
2023-02-04T10:06:59.167Z,102250.97
2023-02-04T10:08:01.330Z,102256.94
2023-02-04T10:09:03.769Z,102259.69
2023-02-04T10:10:06.687Z,102254.03
2023-02-04T10:11:09.868Z,102258.50
2023-02-04T10:12:12.040Z,102258.66
2023-02-04T10:13:19.298Z,102257.47
2023-02-04T10:14:23.430Z,102265.69
2023-02-04T10:15:26.606Z,102264.66
2023-02-04T10:16:33.335Z,102261.06
2023-02-04T10:17:37.112Z,102263.47
2023-02-04T10:18:40.214Z,102258.00
2023-02-04T10:19:42.430Z,102260.72
2023-02-04T10:20:44.780Z,102263.47
2023-02-04T10:21:47.530Z,102265.16
2023-02-04T10:22:52.646Z,102272.69
2023-02-04T10:23:57.497Z,102270.78
2023-02-04T10:25:05.249Z,102273.53
2023-02-04T10:26:11.802Z,102270.97
2023-02-04T10:27:18.457Z,102265.50
2023-02-04T10:28:20.745Z,102260.88
2023-02-04T10:29:27.372Z,102264.66
2023-02-04T10:30:35.981Z,102274.56
2023-02-04T10:31:44.263Z,102269.09
2023-02-04T10:32:46.684Z,102266.69
2023-02-04T10:33:49.333Z,102271.34
2023-02-04T10:34:57.751Z,102272.16
2023-02-04T10:36:00.324Z,102267.91
2023-02-04T10:37:14.501Z,102272.16
2023-02-04T10:38:16.694Z,102272.53
2023-02-04T10:39:24.469Z,102272.69
2023-02-04T10:40:35.539Z,102274.56
2023-02-04T10:41:40.217Z,102276.28
2023-02-04T10:42:50.292Z,102274.56
2023-02-04T10:44:03.728Z,102276.59
2023-02-04T10:45:06.726Z,102279.53
2023-02-04T10:46:08.973Z,102275.06
2023-02-04T10:47:31.933Z,102276.13
2023-02-04T10:48:43.440Z,102277.97
2023-02-04T10:50:04.840Z,102272.88
2023-02-04T10:51:13.952Z,102276.63
2023-02-04T10:52:19.071Z,102279.34
2023-02-04T10:53:41.635Z,102273.22
2023-02-04T10:54:50.796Z,102273.22
2023-02-04T10:55:53.160Z,102273.22
2023-02-04T10:56:55.404Z,102285.00
2023-02-04T10:58:02.113Z,102271.50
2023-02-04T10:59:04.960Z,102272.53
2023-02-04T11:00:22.381Z,102276.97
2023-02-04T11:01:28.768Z,102280.72
2023-02-04T11:02:48.331Z,102276.28
2023-02-04T11:03:52.434Z,102278.16
2023-02-04T11:04:54.707Z,102283.97
2023-02-04T11:06:00.631Z,102273.19
2023-02-04T11:07:04.236Z,102278.13
2023-02-04T11:08:29.763Z,102281.06
2023-02-04T11:09:33.367Z,102272.00
2023-02-04T11:10:36.044Z,102276.59
2023-02-04T11:11:38.632Z,102269.09
2023-02-04T11:13:01.058Z,102281.94
2023-02-04T11:14:04.387Z,102274.56
2023-02-04T11:15:08.112Z,102276.28
2023-02-04T11:16:28.681Z,102272.66
2023-02-04T11:17:35.107Z,102282.28
2023-02-04T11:18:54.863Z,102276.63
2023-02-04T11:20:00.911Z,102279.34
2023-02-04T11:21:15.193Z,102287.56
2023-02-04T11:22:44.317Z,102279.00
2023-02-04T11:23:46.548Z,102277.16
2023-02-04T11:24:50.718Z,102295.25
2023-02-04T11:26:22.808Z,102292.50
2023-02-04T11:27:37.209Z,102282.44
2023-02-04T11:28:44.543Z,102279.00
2023-02-04T11:29:48.056Z,102292.69
2023-02-04T11:31:00.267Z,102292.03
2023-02-04T11:32:05.513Z,102291.16
2023-02-04T11:33:23.751Z,102294.06
2023-02-04T11:34:29.121Z,102288.59
2023-02-04T11:35:32.889Z,102292.34
2023-02-04T11:36:36.032Z,102287.88
2023-02-04T11:37:41.051Z,102290.78
2023-02-04T11:38:49.116Z,102283.59
2023-02-04T11:39:51.394Z,102286.53
2023-02-04T11:40:57.766Z,102287.53
2023-02-04T11:42:01.291Z,102293.00
2023-02-04T11:43:16.020Z,102291.16
2023-02-04T11:44:19.065Z,102286.53
2023-02-04T11:45:25.522Z,102298.34
2023-02-04T11:46:29.367Z,102295.59
2023-02-04T11:47:36.983Z,102301.06
2023-02-04T11:48:39.399Z,102298.47
2023-02-04T11:49:41.948Z,102307.56
2023-02-04T11:51:02.151Z,102298.34
2023-02-04T11:52:09.081Z,102306.69
2023-02-04T11:53:12.215Z,102305.66
2023-02-04T11:54:18.085Z,102309.28
2023-02-04T11:55:21.741Z,102308.22
2023-02-04T11:56:27.952Z,102311.84
2023-02-04T11:57:38.953Z,102310.81
2023-02-04T11:58:42.854Z,102305.34
2023-02-04T11:59:46.217Z,102309.94
2023-02-04T12:00:48.457Z,102307.22
2023-02-04T12:01:50.677Z,102310.97
2023-02-04T12:03:01.894Z,102312.84
2023-02-04T12:04:07.509Z,102313.88
2023-02-04T12:05:13.811Z,102312.00
2023-02-04T12:06:28.196Z,102318.66
2023-02-04T12:07:30.555Z,102311.47
2023-02-04T12:08:36.289Z,102313.53